Time;durP1;ratioP1;P1;durP2;ratioP2;P2;SDS_P1;SDS_P2;PMS_P1;PMS_P2;Temp;Humidity;BMP_temperature;BMP_pressure;BME280_temperature;BME280_humidity;BME280_pressure;Samples;Min_cycle;Max_cycle;Signal;HPM_P1;HPM_P2
2023/02/12 00:01:17;;;;;;;28.13;8.60;;;6.80;99.90;;;;;;4991708;28;20026;-73
2023/02/12 00:03:43;;;;;;;32.63;9.60;;;6.80;99.90;;;;;;4996338;28;20065;-72
2023/02/12 00:06:09;;;;;;;38.85;11.43;;;6.80;99.90;;;;;;4996603;28;20961;-72
2023/02/12 00:08:35;;;;;;;39.85;11.23;;;6.80;99.90;;;;;;4993840;28;20492;-72
2023/02/12 00:11:09;;;;;;;43.15;11.77;;;6.80;99.90;;;;;;4990819;28;20041;-73
2023/02/12 00:13:35;;;;;;;44.30;13.65;;;6.80;99.90;;;;;;4996200;28;20035;-73
2023/02/12 00:16:07;;;;;;;42.70;11.35;;;6.80;99.90;;;;;;4989722;28;20034;-73
2023/02/12 00:18:33;;;;;;;36.70;10.60;;;6.80;99.90;;;;;;4998002;28;20038;-72
2023/02/12 00:20:59;;;;;;;45.30;11.15;;;6.80;99.90;;;;;;5001227;28;20033;-72
2023/02/12 00:23:25;;;;;;;36.67;11.18;;;6.80;99.90;;;;;;4998526;28;20081;-72
2023/02/12 00:25:50;;;;;;;41.13;10.73;;;6.70;99.90;;;;;;4992977;28;20038;-72
2023/02/12 00:28:16;;;;;;;37.08;9.98;;;6.70;99.90;;;;;;4994663;28;20085;-72
2023/02/12 00:30:42;;;;;;;41.67;11.15;;;6.80;99.90;;;;;;4995141;28;20038;-73
2023/02/12 00:33:07;;;;;;;41.25;11.35;;;6.70;99.90;;;;;;4994126;28;20034;-73
2023/02/12 00:35:32;;;;;;;45.95;10.73;;;6.70;99.90;;;;;;4993812;28;20035;-72
2023/02/12 00:37:58;;;;;;;34.33;9.95;;;6.80;99.90;;;;;;4992881;28;20096;-72
2023/02/12 00:40:23;;;;;;;41.47;10.13;;;6.70;99.90;;;;;;4993266;28;20069;-72
2023/02/12 00:42:49;;;;;;;32.47;9.07;;;6.70;99.90;;;;;;4992976;28;20023;-72
2023/02/12 00:45:14;;;;;;;35.53;8.55;;;6.70;99.90;;;;;;4992672;28;20030;-73
2023/02/12 00:47:40;;;;;;;31.65;8.57;;;6.70;99.90;;;;;;4990380;28;20569;-72
2023/02/12 00:50:06;;;;;;;32.15;7.40;;;6.70;99.90;;;;;;4993844;28;20368;-72
2023/02/12 00:52:31;;;;;;;26.10;7.20;;;6.70;99.90;;;;;;4990060;28;20125;-72
2023/02/12 00:54:57;;;;;;;29.00;6.90;;;6.70;99.90;;;;;;4992290;28;20172;-72
2023/02/12 00:57:22;;;;;;;25.05;7.43;;;6.60;99.90;;;;;;4996564;28;20038;-73
2023/02/12 00:59:48;;;;;;;24.05;6.63;;;6.60;99.90;;;;;;4987860;28;20675;-73
2023/02/12 01:02:13;;;;;;;22.17;6.38;;;6.70;99.90;;;;;;4994464;28;20045;-73
2023/02/12 01:04:39;;;;;;;24.33;6.25;;;6.60;99.90;;;;;;4993755;28;20529;-73
2023/02/12 01:07:04;;;;;;;25.20;6.32;;;6.60;99.90;;;;;;4993540;28;20053;-73
2023/02/12 01:09:30;;;;;;;20.13;5.88;;;6.60;99.90;;;;;;4988918;28;20057;-73
2023/02/12 01:11:55;;;;;;;19.95;6.82;;;6.60;99.90;;;;;;4991151;28;20109;-73
2023/02/12 01:14:21;;;;;;;24.58;6.15;;;6.60;99.90;;;;;;4993100;28;20034;-73
2023/02/12 01:16:46;;;;;;;21.30;6.43;;;6.60;99.90;;;;;;4987266;28;20046;-72
2023/02/12 01:19:12;;;;;;;21.45;6.35;;;6.60;99.90;;;;;;4984871;28;20545;-73
2023/02/12 01:21:37;;;;;;;21.65;5.57;;;6.60;99.90;;;;;;4990459;28;20031;-73
2023/02/12 01:24:03;;;;;;;18.58;6.13;;;6.60;99.90;;;;;;4991563;28;20451;-72
2023/02/12 01:26:30;;;;;;;23.27;6.47;;;6.60;99.90;;;;;;4987437;28;20054;-73
2023/02/12 01:29:01;;;;;;;23.83;6.63;;;6.60;99.90;;;;;;4996768;28;20042;-72
2023/02/12 01:31:30;;;;;;;20.92;5.28;;;6.60;99.90;;;;;;4988126;28;20542;-73
2023/02/12 01:33:58;;;;;;;20.63;5.13;;;6.50;99.90;;;;;;4990012;28;20586;-72
2023/02/12 01:36:24;;;;;;;17.17;4.88;;;6.50;99.90;;;;;;5001848;28;20095;-72
2023/02/12 01:38:50;;;;;;;13.05;4.15;;;6.50;99.90;;;;;;4989994;28;20088;-72
2023/02/12 01:41:22;;;;;;;13.68;4.70;;;6.50;99.90;;;;;;4989591;28;20478;-73
2023/02/12 01:44:07;;;;;;;16.67;4.88;;;6.50;99.90;;;;;;4992837;28;20038;-72
2023/02/12 01:46:33;;;;;;;16.38;4.47;;;6.50;99.90;;;;;;4978074;28;20216;-72
2023/02/12 01:49:00;;;;;;;13.43;4.22;;;6.40;99.90;;;;;;4986764;28;22374;-72
2023/02/12 01:51:27;;;;;;;15.27;4.22;;;6.40;99.90;;;;;;4986645;28;20069;-72
2023/02/12 01:53:57;;;;;;;17.60;5.18;;;6.40;99.90;;;;;;4984451;28;20051;-72
2023/02/12 01:56:23;;;;;;;18.85;4.97;;;6.40;99.90;;;;;;4987479;28;20030;-72
2023/02/12 01:58:51;;;;;;;18.60;5.03;;;6.30;99.90;;;;;;4988483;28;20030;-72
2023/02/12 02:01:24;;;;;;;20.98;4.97;;;6.40;99.90;;;;;;4998548;28;20029;-72
2023/02/12 02:03:52;;;;;;;17.15;5.00;;;6.30;99.90;;;;;;4994938;28;20038;-72
2023/02/12 02:06:31;;;;;;;23.05;5.45;;;6.40;99.90;;;;;;4991389;28;20037;-72
2023/02/12 02:08:57;;;;;;;16.58;4.93;;;6.30;99.90;;;;;;4990474;28;20093;-72
2023/02/12 02:17:10;;;;;;;9.73;3.08;;;6.20;99.90;;;;;;4985393;28;20113;-73
2023/02/12 02:20:29;;;;;;;8.15;2.40;;;6.10;99.90;;;;;;4981458;28;20105;-72
2023/02/12 02:23:26;;;;;;;5.72;2.10;;;6.10;99.90;;;;;;4982847;28;20038;-72
2023/02/12 02:26:01;;;;;;;8.65;2.15;;;5.90;99.90;;;;;;4985262;28;20379;-73
2023/02/12 02:28:51;;;;;;;5.43;1.70;;;5.90;99.90;;;;;;4991502;28;20060;-73
2023/02/12 02:31:39;;;;;;;5.40;1.90;;;5.90;99.90;;;;;;4989027;28;20034;-72
2023/02/12 02:34:32;;;;;;;5.93;1.63;;;5.90;99.90;;;;;;4992881;28;20027;-72
2023/02/12 02:37:17;;;;;;;5.90;1.90;;;5.90;99.90;;;;;;4989967;28;20034;-72
2023/02/12 02:40:01;;;;;;;7.97;2.35;;;5.90;99.90;;;;;;4983594;28;20030;-72
2023/02/12 02:42:38;;;;;;;9.38;2.22;;;5.90;99.90;;;;;;4989105;28;20229;-73
2023/02/12 02:45:11;;;;;;;11.02;2.30;;;5.90;99.90;;;;;;4992720;28;20031;-73
2023/02/12 02:48:02;;;;;;;7.38;2.38;;;5.90;99.90;;;;;;4986166;28;20038;-72
2023/02/12 02:50:31;;;;;;;10.63;2.92;;;5.90;99.90;;;;;;4980818;28;20041;-72
2023/02/12 02:53:04;;;;;;;11.52;2.72;;;5.90;99.90;;;;;;4990635;28;20034;-73
2023/02/12 02:55:35;;;;;;;10.98;2.72;;;6.00;99.90;;;;;;4995127;28;20026;-72
2023/02/12 02:58:19;;;;;;;10.48;2.95;;;5.90;99.90;;;;;;4989821;28;20034;-73
2023/02/12 03:00:52;;;;;;;14.98;2.90;;;6.00;99.90;;;;;;4982825;28;20034;-72
2023/02/12 03:03:22;;;;;;;9.38;3.13;;;6.00;99.90;;;;;;4987287;28;20034;-72
2023/02/12 03:05:51;;;;;;;15.77;3.65;;;6.00;99.90;;;;;;4990633;28;20035;-72
2023/02/12 03:08:22;;;;;;;13.45;3.22;;;6.00;99.90;;;;;;4988855;28;20444;-72
2023/02/12 03:10:53;;;;;;;16.75;4.03;;;6.00;99.90;;;;;;4983429;28;20026;-72
2023/02/12 03:13:38;;;;;;;14.27;4.00;;;6.00;99.90;;;;;;4991250;28;20391;-72
2023/02/12 03:16:26;;;;;;;17.38;4.95;;;6.00;99.90;;;;;;4984047;28;20049;-73
2023/02/12 03:18:58;;;;;;;22.75;5.15;;;6.00;99.90;;;;;;4989194;28;20030;-73
2023/02/12 03:21:59;;;;;;;22.05;5.35;;;6.00;99.90;;;;;;4990429;28;20459;-73
2023/02/12 03:24:32;;;;;;;22.88;5.00;;;6.10;99.90;;;;;;4965106;28;20109;-73
2023/02/12 03:27:13;;;;;;;24.75;6.05;;;6.10;99.90;;;;;;4981712;28;20042;-72
2023/02/12 03:29:39;;;;;;;26.73;5.68;;;6.10;99.90;;;;;;4989432;28;20485;-72
2023/02/12 03:32:18;;;;;;;41.83;5.35;;;6.10;99.90;;;;;;4987410;28;20113;-72
2023/02/12 03:35:12;;;;;;;61.38;5.45;;;6.10;99.90;;;;;;4988195;28;20038;-72
2023/02/12 03:38:07;;;;;;;36.78;5.00;;;6.10;99.90;;;;;;4991023;28;20042;-72
2023/02/12 03:40:41;;;;;;;48.78;6.20;;;6.10;99.90;;;;;;4988102;28;20038;-72
2023/02/12 03:43:30;;;;;;;35.33;4.57;;;6.10;99.90;;;;;;4984889;28;20053;-72
2023/02/12 03:46:06;;;;;;;73.45;6.15;;;6.00;99.90;;;;;;4985347;28;20038;-73
2023/02/12 03:48:41;;;;;;;54.53;5.75;;;6.10;99.90;;;;;;4983949;28;20038;-73
2023/02/12 03:51:33;;;;;;;42.67;5.35;;;6.10;99.90;;;;;;4988398;28;20061;-72
2023/02/12 03:54:00;;;;;;;49.97;5.60;;;6.10;99.90;;;;;;4989205;28;20368;-73
2023/02/12 03:56:51;;;;;;;65.05;4.65;;;6.10;99.90;;;;;;4989492;28;20065;-72
2023/02/12 03:59:18;;;;;;;40.20;5.43;;;6.10;99.90;;;;;;4985421;28;20034;-72
2023/02/12 04:01:44;;;;;;;64.03;5.63;;;6.10;99.90;;;;;;4988938;28;20041;-72
2023/02/12 04:04:10;;;;;;;89.22;6.97;;;6.10;99.90;;;;;;4996818;28;20387;-72
2023/02/12 04:06:36;;;;;;;46.83;5.30;;;6.10;99.90;;;;;;4998887;28;20045;-73
2023/02/12 04:09:05;;;;;;;61.35;5.07;;;6.10;99.90;;;;;;4984797;28;20042;-73
2023/02/12 04:12:00;;;;;;;72.60;5.75;;;6.10;99.90;;;;;;4983840;28;20475;-73
2023/02/12 04:15:07;;;;;;;83.57;6.20;;;6.10;99.90;;;;;;4985088;28;20054;-72
2023/02/12 04:17:51;;;;;;;74.28;6.07;;;6.10;99.90;;;;;;4985635;28;20463;-73
2023/02/12 04:20:43;;;;;;;66.50;5.18;;;6.10;99.90;;;;;;4986713;28;20399;-72
2023/02/12 04:23:45;;;;;;;74.22;6.85;;;6.10;99.90;;;;;;4987574;28;20022;-73
2023/02/12 04:26:38;;;;;;;99.45;9.00;;;6.10;99.90;;;;;;4976991;28;20054;-73
2023/02/12 04:29:33;;;;;;;134.35;12.90;;;6.10;99.90;;;;;;4988627;28;20053;-72
2023/02/12 04:32:17;;;;;;;125.22;14.02;;;6.10;99.90;;;;;;4985053;28;20038;-72
2023/02/12 04:35:14;;;;;;;142.75;15.32;;;6.10;99.90;;;;;;4988825;28;20034;-73
2023/02/12 04:37:49;;;;;;;163.93;17.08;;;6.10;99.90;;;;;;4991790;28;20038;-73
2023/02/12 04:40:16;;;;;;;136.32;16.42;;;6.10;99.90;;;;;;4989518;28;20029;-73
2023/02/12 04:42:48;;;;;;;139.93;14.75;;;6.10;99.90;;;;;;4991929;28;20058;-73
2023/02/12 04:45:19;;;;;;;141.05;15.75;;;6.10;99.90;;;;;;4990724;28;20304;-72
2023/02/12 04:47:45;;;;;;;117.25;14.65;;;6.10;99.90;;;;;;4991215;28;20031;-73
2023/02/12 04:50:11;;;;;;;104.70;13.85;;;6.10;99.90;;;;;;4987296;28;20033;-73
2023/02/12 04:52:36;;;;;;;110.93;12.95;;;6.10;99.90;;;;;;4989065;28;20030;-73
2023/02/12 04:55:02;;;;;;;107.32;13.05;;;6.10;99.90;;;;;;4990832;28;20038;-73
2023/02/12 04:57:27;;;;;;;157.18;12.35;;;6.10;99.90;;;;;;4987446;28;20057;-72
2023/02/12 04:59:53;;;;;;;105.45;10.65;;;6.10;99.90;;;;;;4990509;28;20030;-72
2023/02/12 05:02:18;;;;;;;144.02;13.00;;;6.10;99.90;;;;;;4990333;28;20337;-73
2023/02/12 05:04:44;;;;;;;125.80;10.57;;;6.10;99.90;;;;;;4993081;28;20039;-73
2023/02/12 05:07:10;;;;;;;89.63;10.05;;;6.10;99.90;;;;;;4994372;28;20042;-72
2023/02/12 05:09:36;;;;;;;131.73;10.95;;;6.10;99.90;;;;;;4988422;28;20030;-72
2023/02/12 05:12:01;;;;;;;122.60;10.10;;;6.10;99.90;;;;;;4993045;28;20049;-73
2023/02/12 05:14:27;;;;;;;119.68;9.70;;;6.10;99.90;;;;;;4989734;28;20494;-72
2023/02/12 05:16:52;;;;;;;108.75;9.32;;;6.10;99.90;;;;;;4988290;28;20459;-73
2023/02/12 05:19:18;;;;;;;107.20;9.23;;;6.10;99.90;;;;;;4991047;28;20041;-73
2023/02/12 05:21:43;;;;;;;116.90;9.30;;;6.10;99.90;;;;;;4992654;28;20390;-73
2023/02/12 05:24:09;;;;;;;97.07;9.43;;;6.10;99.90;;;;;;4990154;28;20033;-73
2023/02/12 05:26:34;;;;;;;130.68;9.40;;;6.10;99.90;;;;;;4991050;28;20450;-72
2023/02/12 05:29:00;;;;;;;112.93;9.10;;;6.10;99.90;;;;;;4996171;28;20037;-67
2023/02/12 05:31:26;;;;;;;109.90;8.35;;;6.10;99.90;;;;;;4988353;28;20101;-68
2023/02/12 05:33:52;;;;;;;142.07;9.50;;;6.10;99.90;;;;;;4994869;28;20036;-68
2023/02/12 05:36:20;;;;;;;136.52;10.40;;;6.10;99.90;;;;;;4998374;28;20452;-68
2023/02/12 05:38:46;;;;;;;120.35;9.38;;;6.10;99.90;;;;;;4986826;28;20034;-68
2023/02/12 05:41:14;;;;;;;166.70;10.88;;;6.10;99.90;;;;;;4998157;28;20538;-68
2023/02/12 05:43:40;;;;;;;171.45;11.38;;;6.10;99.90;;;;;;4992293;28;20486;-69
2023/02/12 05:46:06;;;;;;;125.55;9.82;;;6.10;99.90;;;;;;4987913;28;20030;-68
2023/02/12 05:48:32;;;;;;;137.75;10.75;;;6.10;99.90;;;;;;4992619;28;20030;-68
2023/02/12 05:51:20;;;;;;;150.73;10.80;;;6.10;99.90;;;;;;4989459;28;20037;-68
2023/02/12 05:53:48;;;;;;;137.13;10.30;;;6.10;99.90;;;;;;4994915;28;20081;-68
2023/02/12 05:56:19;;;;;;;130.70;10.38;;;6.10;99.90;;;;;;4989104;28;20479;-69
2023/02/12 05:58:48;;;;;;;129.80;10.05;;;6.10;99.90;;;;;;4999170;28;20137;-68
2023/02/12 06:01:17;;;;;;;135.90;11.07;;;6.10;99.90;;;;;;4988063;28;20162;-70
2023/02/12 06:03:43;;;;;;;134.73;11.57;;;6.10;99.90;;;;;;5003466;28;20073;-68
2023/02/12 06:06:10;;;;;;;145.65;11.85;;;6.20;99.90;;;;;;4992848;28;20072;-70
2023/02/12 06:08:36;;;;;;;173.30;12.65;;;6.10;99.90;;;;;;4988354;28;20067;-67
2023/02/12 06:11:03;;;;;;;139.90;13.27;;;6.10;99.90;;;;;;4990361;28;20432;-68
2023/02/12 06:13:30;;;;;;;204.07;13.65;;;6.20;99.90;;;;;;4989651;28;20096;-67
2023/02/12 06:15:55;;;;;;;175.82;12.20;;;6.20;99.90;;;;;;4987784;28;20077;-70
2023/02/12 06:18:21;;;;;;;158.50;13.38;;;6.10;99.90;;;;;;4999586;28;20053;-67
2023/02/12 06:20:46;;;;;;;162.05;13.80;;;6.10;99.90;;;;;;4991015;28;20031;-67
2023/02/12 06:23:12;;;;;;;229.35;14.98;;;6.20;99.90;;;;;;4991475;28;20738;-68
2023/02/12 06:25:37;;;;;;;192.00;14.52;;;6.20;99.90;;;;;;4989376;28;20081;-67
2023/02/12 06:28:03;;;;;;;215.55;16.17;;;6.20;99.90;;;;;;4992847;28;20064;-70
2023/02/12 06:30:30;;;;;;;232.80;16.73;;;6.20;99.90;;;;;;4990155;28;20117;-67
2023/02/12 06:32:56;;;;;;;152.60;15.30;;;6.20;99.90;;;;;;4989810;28;20426;-65
2023/02/12 06:35:22;;;;;;;219.85;16.75;;;6.20;99.90;;;;;;4992164;28;20506;-65
2023/02/12 06:37:47;;;;;;;223.25;16.58;;;6.20;99.90;;;;;;4991224;28;20030;-66
2023/02/12 06:40:13;;;;;;;160.18;15.57;;;6.20;99.90;;;;;;4987690;28;20073;-65
2023/02/12 06:42:39;;;;;;;155.50;15.80;;;6.20;99.90;;;;;;4988312;28;20034;-66
2023/02/12 06:45:05;;;;;;;189.57;18.75;;;6.20;99.90;;;;;;4990177;28;20034;-65
2023/02/12 06:47:30;;;;;;;208.52;18.77;;;6.30;99.90;;;;;;4991116;28;20459;-65
2023/02/12 06:49:56;;;;;;;157.18;19.90;;;6.20;99.90;;;;;;4984878;28;20399;-67
2023/02/12 06:52:21;;;;;;;181.48;19.20;;;6.30;99.90;;;;;;4988488;28;20050;-65
2023/02/12 06:54:47;;;;;;;235.80;21.08;;;6.30;99.90;;;;;;4988076;28;20043;-65
2023/02/12 06:57:12;;;;;;;163.82;20.13;;;6.30;99.90;;;;;;4985875;28;20050;-66
2023/02/12 06:59:38;;;;;;;193.88;20.30;;;6.30;99.90;;;;;;4988473;28;20113;-66
2023/02/12 07:02:03;;;;;;;173.43;20.00;;;6.30;99.90;;;;;;4990850;28;20479;-66
2023/02/12 07:04:29;;;;;;;135.00;19.15;;;6.30;99.90;;;;;;4989472;28;20039;-66
2023/02/12 07:06:54;;;;;;;176.57;21.38;;;6.30;99.90;;;;;;4989955;28;20088;-66
2023/02/12 07:09:20;;;;;;;183.48;22.30;;;6.30;99.90;;;;;;4991221;28;20125;-65
2023/02/12 07:11:46;;;;;;;213.30;24.75;;;6.30;99.90;;;;;;4986489;28;20468;-65
2023/02/12 07:14:15;;;;;;;164.35;21.08;;;6.40;99.90;;;;;;4986611;28;20042;-65
2023/02/12 07:16:42;;;;;;;174.18;21.92;;;6.30;99.90;;;;;;4985793;28;20062;-65
2023/02/12 07:19:11;;;;;;;274.75;24.77;;;6.40;99.90;;;;;;4989783;28;20442;-65
2023/02/12 07:21:37;;;;;;;168.45;22.88;;;6.40;99.90;;;;;;4985658;28;20088;-65
2023/02/12 07:24:03;;;;;;;194.45;22.92;;;6.40;99.90;;;;;;4990191;28;20101;-64
2023/02/12 07:26:28;;;;;;;199.90;22.58;;;6.30;99.90;;;;;;4986576;28;20463;-65
2023/02/12 07:28:57;;;;;;;185.57;23.35;;;6.40;99.90;;;;;;4986896;28;20031;-66
2023/02/12 07:31:23;;;;;;;168.55;22.35;;;6.40;99.90;;;;;;4989368;28;20073;-66
2023/02/12 07:33:53;;;;;;;173.30;22.88;;;6.40;99.90;;;;;;4987327;28;20054;-65
2023/02/12 07:36:19;;;;;;;181.35;22.73;;;6.40;99.90;;;;;;4992764;28;20109;-65
2023/02/12 07:38:45;;;;;;;143.30;21.60;;;6.40;99.90;;;;;;4988972;28;20045;-65
2023/02/12 07:41:14;;;;;;;161.20;21.83;;;6.40;99.90;;;;;;4992747;28;20039;-65
2023/02/12 07:43:41;;;;;;;153.50;22.27;;;6.40;99.90;;;;;;4990862;28;20113;-67
2023/02/12 07:46:16;;;;;;;141.95;21.48;;;6.50;99.90;;;;;;4989494;28;20030;-65
2023/02/12 07:48:42;;;;;;;158.93;22.70;;;6.50;99.90;;;;;;4987209;28;20125;-69
2023/02/12 07:51:10;;;;;;;122.65;21.48;;;6.50;99.90;;;;;;4991134;28;20110;-65
2023/02/12 07:53:37;;;;;;;199.18;25.70;;;6.50;99.90;;;;;;4991290;28;20104;-66
2023/02/12 07:56:16;;;;;;;111.97;20.33;;;6.50;99.90;;;;;;4989874;28;20038;-66
2023/02/12 07:58:46;;;;;;;123.57;21.27;;;6.50;99.90;;;;;;4987246;28;20105;-67
2023/02/12 08:01:14;;;;;;;174.85;24.65;;;6.50;99.90;;;;;;4989245;28;20468;-66
2023/02/12 08:03:40;;;;;;;166.48;24.35;;;6.50;99.90;;;;;;4995722;28;20092;-66
2023/02/12 08:06:09;;;;;;;176.50;23.88;;;6.50;99.90;;;;;;4993338;28;20027;-65
2023/02/12 08:08:37;;;;;;;164.32;23.95;;;6.50;99.90;;;;;;4981020;28;20038;-66
2023/02/12 08:11:07;;;;;;;226.57;24.95;;;6.50;99.90;;;;;;4973672;28;20494;-65
2023/02/12 08:13:33;;;;;;;202.80;24.23;;;6.50;99.90;;;;;;4984933;28;20101;-65
2023/02/12 08:16:05;;;;;;;177.70;23.80;;;6.50;99.90;;;;;;4983284;28;20050;-65
2023/02/12 08:18:31;;;;;;;192.82;24.50;;;6.50;99.90;;;;;;4994785;28;20031;-65
2023/02/12 08:21:05;;;;;;;230.45;25.67;;;6.60;99.90;;;;;;4986090;28;20093;-66
2023/02/12 08:23:32;;;;;;;215.55;25.75;;;6.50;99.90;;;;;;4990928;28;20034;-68
2023/02/12 08:26:06;;;;;;;171.60;24.35;;;6.50;99.90;;;;;;4992771;28;20038;-66
2023/02/12 08:28:32;;;;;;;191.07;25.20;;;6.50;99.90;;;;;;4984862;28;20518;-66
2023/02/12 08:31:06;;;;;;;203.55;25.13;;;6.60;99.90;;;;;;4995938;28;20034;-67
2023/02/12 08:33:32;;;;;;;203.63;26.30;;;6.60;99.90;;;;;;4983681;28;20466;-68
2023/02/12 08:36:06;;;;;;;183.27;25.65;;;6.60;99.90;;;;;;4989795;28;20030;-68
2023/02/12 08:38:32;;;;;;;183.25;23.52;;;6.60;99.90;;;;;;4991697;28;20030;-65
2023/02/12 08:41:02;;;;;;;177.27;25.17;;;6.60;99.90;;;;;;4996003;28;20093;-66
2023/02/12 08:43:28;;;;;;;214.75;25.10;;;6.60;99.90;;;;;;4990555;28;20562;-68
2023/02/12 08:45:54;;;;;;;165.10;24.17;;;6.60;99.90;;;;;;4991157;28;20042;-66
2023/02/12 08:48:19;;;;;;;197.45;25.20;;;6.60;99.90;;;;;;4993856;28;20129;-65
2023/02/12 08:50:46;;;;;;;149.90;24.30;;;6.60;99.90;;;;;;4989354;28;20048;-65
2023/02/12 08:53:11;;;;;;;195.50;25.92;;;6.60;99.90;;;;;;4987837;28;20495;-66
2023/02/12 08:55:37;;;;;;;217.13;24.60;;;6.60;99.90;;;;;;4988664;28;20061;-67
2023/02/12 08:58:02;;;;;;;139.70;23.85;;;6.60;99.90;;;;;;4983663;28;20121;-66
2023/02/12 09:00:28;;;;;;;177.18;22.75;;;6.60;99.90;;;;;;4989267;28;20113;-66
2023/02/12 09:02:53;;;;;;;123.45;23.42;;;6.60;99.90;;;;;;4990408;28;20486;-66
2023/02/12 09:05:19;;;;;;;95.60;20.20;;;6.70;99.90;;;;;;4984711;28;20027;-66
2023/02/12 09:07:44;;;;;;;75.35;19.35;;;6.70;99.90;;;;;;4990406;28;20038;-65
2023/02/12 09:10:10;;;;;;;89.03;18.77;;;6.70;99.90;;;;;;4990531;28;21580;-65
2023/02/12 09:12:35;;;;;;;83.18;19.67;;;6.70;99.90;;;;;;4987208;28;20377;-66
2023/02/12 09:15:01;;;;;;;75.70;19.40;;;6.70;99.90;;;;;;4984688;28;20038;-66
2023/02/12 09:17:27;;;;;;;85.90;19.10;;;6.70;99.90;;;;;;4990368;28;20499;-65
2023/02/12 09:19:53;;;;;;;89.65;20.17;;;6.70;99.90;;;;;;4995570;28;20034;-66
2023/02/12 09:22:18;;;;;;;86.43;19.67;;;6.70;99.90;;;;;;4993065;28;20026;-66
2023/02/12 09:24:44;;;;;;;74.85;18.88;;;6.80;99.90;;;;;;4990743;28;20046;-65
2023/02/12 09:27:09;;;;;;;72.13;18.75;;;6.80;99.90;;;;;;4985523;28;20065;-66
2023/02/12 09:29:35;;;;;;;78.45;19.42;;;6.80;99.90;;;;;;4984224;28;20030;-65
2023/02/12 09:32:05;;;;;;;74.85;18.05;;;6.80;99.90;;;;;;4999305;28;20184;-65
2023/02/12 09:34:34;;;;;;;71.18;17.98;;;6.80;99.90;;;;;;5003574;28;20030;-67
2023/02/12 09:36:59;;;;;;;66.85;18.05;;;6.80;99.90;;;;;;4984715;28;20423;-69
2023/02/12 09:39:29;;;;;;;68.93;17.52;;;6.80;99.90;;;;;;4984841;28;20034;-66
2023/02/12 09:42:03;;;;;;;67.45;18.13;;;6.90;99.90;;;;;;4985928;28;20034;-66
2023/02/12 09:44:56;;;;;;;58.65;17.73;;;6.90;99.90;;;;;;4980038;28;20037;-67
2023/02/12 09:47:29;;;;;;;63.63;18.17;;;6.90;99.90;;;;;;4985093;28;20046;-66
2023/02/12 09:50:19;;;;;;;70.00;17.65;;;6.90;99.90;;;;;;4988081;28;20022;-66
2023/02/12 09:52:45;;;;;;;67.13;18.00;;;7.00;99.90;;;;;;4990554;28;20471;-66
2023/02/12 09:55:14;;;;;;;47.60;15.07;;;6.90;99.90;;;;;;4979386;28;20049;-65
2023/02/12 09:57:41;;;;;;;50.50;16.70;;;7.00;99.90;;;;;;4978116;28;20054;-68
2023/02/12 10:00:22;;;;;;;54.78;16.63;;;6.90;99.90;;;;;;4985190;28;20038;-66
2023/02/12 10:02:51;;;;;;;36.97;13.43;;;7.00;99.90;;;;;;4996193;28;20546;-66
2023/02/12 10:05:21;;;;;;;48.88;14.93;;;7.00;99.90;;;;;;4989728;28;20061;-65
2023/02/12 10:08:05;;;;;;;40.15;13.80;;;7.00;99.90;;;;;;4990907;28;20257;-66
2023/02/12 10:10:49;;;;;;;37.95;14.35;;;7.00;99.90;;;;;;4982109;28;20047;-66
2023/02/12 10:13:53;;;;;;;37.78;14.15;;;7.10;99.90;;;;;;4980631;28;20037;-66
2023/02/12 10:16:34;;;;;;;43.00;13.20;;;7.10;99.90;;;;;;4993162;28;20038;-66
2023/02/12 10:19:26;;;;;;;35.45;13.00;;;7.10;99.90;;;;;;4985397;28;20391;-66
2023/02/12 10:22:16;;;;;;;39.22;12.90;;;7.10;99.90;;;;;;4993372;28;20034;-66
2023/02/12 10:25:08;;;;;;;34.22;12.65;;;7.10;99.90;;;;;;4991926;28;20514;-65
2023/02/12 10:27:44;;;;;;;33.13;12.75;;;7.10;99.90;;;;;;4985336;28;20095;-66
2023/02/12 10:30:18;;;;;;;34.88;12.48;;;7.10;99.90;;;;;;4993126;28;20360;-67
2023/02/12 10:32:46;;;;;;;32.33;11.70;;;7.20;99.90;;;;;;5005743;28;20545;-67
2023/02/12 10:35:14;;;;;;;30.85;12.20;;;7.20;99.90;;;;;;4991895;28;20026;-66
2023/02/12 10:37:53;;;;;;;26.88;11.77;;;7.20;99.90;;;;;;4994205;28;20057;-66
2023/02/12 10:40:29;;;;;;;34.03;12.13;;;7.30;99.90;;;;;;4993759;28;20038;-66
2023/02/12 10:42:59;;;;;;;36.70;12.23;;;7.30;99.90;;;;;;5000036;28;20027;-66
2023/02/12 10:45:33;;;;;;;27.13;10.73;;;7.30;99.90;;;;;;4994281;28;20088;-66
2023/02/12 10:48:11;;;;;;;27.13;10.02;;;7.30;99.90;;;;;;4987177;28;20049;-65
2023/02/12 10:51:02;;;;;;;26.42;10.30;;;7.30;99.90;;;;;;4990691;28;20364;-65
2023/02/12 10:53:39;;;;;;;26.35;10.45;;;7.30;99.90;;;;;;4993387;28;20072;-65
2023/02/12 10:56:09;;;;;;;24.15;9.55;;;7.30;99.90;;;;;;5000317;28;20066;-65
2023/02/12 10:58:35;;;;;;;27.23;11.23;;;7.40;99.90;;;;;;4988595;28;20549;-65
2023/02/12 11:01:02;;;;;;;27.67;10.73;;;7.40;99.90;;;;;;5000880;28;20109;-66
2023/02/12 11:03:36;;;;;;;28.23;10.38;;;7.40;99.90;;;;;;5005349;28;20409;-65
2023/02/12 11:06:13;;;;;;;25.98;11.45;;;7.40;99.90;;;;;;4991737;28;20034;-66
2023/02/12 11:08:40;;;;;;;28.88;10.95;;;7.50;99.90;;;;;;4989516;28;20422;-65
2023/02/12 11:11:09;;;;;;;25.48;10.52;;;7.50;99.90;;;;;;4987739;28;20037;-65
2023/02/12 11:13:37;;;;;;;25.20;9.65;;;7.50;99.90;;;;;;4987998;28;20030;-65
2023/02/12 11:16:04;;;;;;;21.42;9.52;;;7.40;99.90;;;;;;4985614;28;20390;-66
2023/02/12 11:18:31;;;;;;;23.08;9.18;;;7.50;99.90;;;;;;4991481;28;20030;-66
2023/02/12 11:21:05;;;;;;;24.52;10.70;;;7.50;99.90;;;;;;4991274;28;20563;-65
2023/02/12 11:23:39;;;;;;;23.85;10.73;;;7.50;99.90;;;;;;4989274;28;20026;-68
2023/02/12 11:26:21;;;;;;;20.42;9.18;;;7.60;99.90;;;;;;4984937;28;20439;-65
2023/02/12 11:28:56;;;;;;;23.77;9.60;;;7.60;99.90;;;;;;4988163;28;20038;-65
2023/02/12 11:31:40;;;;;;;16.98;9.63;;;7.50;99.90;;;;;;4991275;28;20041;-66
2023/02/12 11:34:20;;;;;;;19.83;9.52;;;7.60;99.90;;;;;;4990493;28;20049;-65
2023/02/12 11:36:48;;;;;;;22.17;9.32;;;7.50;99.90;;;;;;4990276;28;20038;-65
2023/02/12 11:39:26;;;;;;;21.17;11.10;;;7.60;99.90;;;;;;4990020;28;20049;-66
2023/02/12 11:42:03;;;;;;;20.42;9.80;;;7.60;99.90;;;;;;5001378;28;20037;-66
2023/02/12 11:44:41;;;;;;;18.10;8.90;;;7.60;99.90;;;;;;4981953;28;20495;-66
2023/02/12 11:47:21;;;;;;;24.60;9.88;;;7.50;99.90;;;;;;4987265;28;20494;-66
2023/02/12 11:49:56;;;;;;;17.35;9.07;;;7.60;99.90;;;;;;4997503;28;20053;-66
2023/02/12 11:52:26;;;;;;;17.15;8.65;;;7.60;99.90;;;;;;4990043;28;20038;-66
2023/02/12 11:54:59;;;;;;;19.52;9.32;;;7.60;99.90;;;;;;4990449;28;20435;-67
2023/02/12 11:57:37;;;;;;;17.95;9.25;;;7.60;99.90;;;;;;4985919;28;20888;-66
2023/02/12 12:00:15;;;;;;;17.23;9.35;;;7.60;99.90;;;;;;4986457;28;20104;-66
2023/02/12 12:02:48;;;;;;;16.45;7.90;;;7.60;99.90;;;;;;4986012;28;20026;-67
2023/02/12 12:05:22;;;;;;;18.30;8.15;;;7.60;99.90;;;;;;4985341;28;20161;-66
2023/02/12 12:07:55;;;;;;;14.95;8.02;;;7.60;99.90;;;;;;4988414;28;20125;-65
2023/02/12 12:10:34;;;;;;;15.63;8.30;;;7.60;99.90;;;;;;4982084;28;20043;-68
2023/02/12 12:13:07;;;;;;;15.57;8.05;;;7.60;99.90;;;;;;4982447;28;20069;-65
2023/02/12 12:21:37;;;;;;;16.13;8.43;;;7.70;99.90;;;;;;4988239;28;20296;-67
2023/02/12 12:24:16;;;;;;;15.80;8.57;;;7.70;99.90;;;;;;4987739;28;20030;-67
2023/02/12 12:26:49;;;;;;;18.30;9.65;;;7.80;99.90;;;;;;4984880;28;20054;-67
2023/02/12 12:29:47;;;;;;;19.92;10.32;;;7.70;99.90;;;;;;5001445;28;20101;-67
2023/02/12 12:32:15;;;;;;;15.05;8.50;;;7.80;99.90;;;;;;4986910;28;20030;-67
2023/02/12 12:34:40;;;;;;;18.25;9.60;;;7.80;99.90;;;;;;4989304;28;20034;-66
2023/02/12 12:37:44;;;;;;;17.40;8.63;;;7.70;99.90;;;;;;4984122;28;20034;-66
2023/02/12 12:40:33;;;;;;;13.32;7.93;;;7.80;99.90;;;;;;4983696;28;20037;-68
2023/02/12 12:43:12;;;;;;;12.98;7.35;;;7.80;99.90;;;;;;4987274;28;20081;-67
2023/02/12 12:46:05;;;;;;;16.65;9.02;;;7.90;99.90;;;;;;4986514;28;20493;-67
2023/02/12 12:48:37;;;;;;;14.38;8.10;;;7.90;99.90;;;;;;4987911;28;20469;-65
2023/02/12 12:51:17;;;;;;;14.15;8.15;;;7.90;99.90;;;;;;4985434;28;20038;-68
2023/02/12 12:53:50;;;;;;;14.85;8.68;;;8.00;99.90;;;;;;4987127;28;20081;-67
2023/02/12 12:56:48;;;;;;;14.88;8.82;;;7.90;99.90;;;;;;4982954;28;20038;-67
2023/02/12 12:59:55;;;;;;;12.10;7.47;;;7.90;99.90;;;;;;4983761;28;20045;-67
2023/02/12 13:02:37;;;;;;;13.05;7.70;;;8.10;99.90;;;;;;4983230;28;20034;-67
2023/02/12 13:05:21;;;;;;;13.55;7.75;;;8.00;99.90;;;;;;4983219;28;20042;-67
2023/02/12 13:07:46;;;;;;;15.82;9.10;;;8.00;99.90;;;;;;4993127;28;20045;-67
2023/02/12 13:10:31;;;;;;;15.88;9.02;;;8.00;99.90;;;;;;4988843;28;20034;-66
2023/02/12 13:13:25;;;;;;;14.20;8.27;;;8.00;99.90;;;;;;4984480;28;20030;-69
2023/02/12 13:15:59;;;;;;;17.58;9.63;;;8.00;99.90;;;;;;4978579;28;20022;-69